Terminal Aerodrome Forecast
Issued by NWS Boston, MA

Home | Current Version | Previous Version | Text Only | Print | Product List | Glossary On
Versions: 1 2 3 4 5 6 7 8 9 10 11 12 13 14 15 16 17 18 19 20 21 22 23 24 25 26 27 28 29 30 31 32 33 34 35 36 37 38 39 40 41 42 43 44 45 46 47 48
000
FTUS41 KBOX 302137 AAA
TAFBDL
TAF AMD
KBDL 302137Z 3022/3124 04005KT P6SM FEW150 BKN250
     FM310700 VRB03KT P6SM VCSH OVC025
     FM310900 04004KT 3SM -SN OVC010
     FM311200 05005KT 2SM -RAPL OVC010
     FM312300 08009KT 1SM -RAPL OVC010=

USA.gov is the U.S. government's official web portal to all federal, state and local government web resources and services.